Time;durP1;ratioP1;P1;durP2;ratioP2;P2;SDS_P1;SDS_P2;PMS_P1;PMS_P2;Temp;Humidity;BMP_temperature;BMP_pressure;BME280_temperature;BME280_humidity;BME280_pressure;Samples;Min_cycle;Max_cycle;Signal;HPM_P1;HPM_P2
2023/11/07 00:00:12;;;;;;;1.60;1.20;;;8.70;98.20;;;;;;4990455;28;20488;-78
2023/11/07 00:02:38;;;;;;;1.60;1.30;;;8.70;98.20;;;;;;4995285;28;20923;-78
2023/11/07 00:05:08;;;;;;;1.60;1.20;;;8.70;98.20;;;;;;4993151;28;20473;-77
2023/11/07 00:07:37;;;;;;;1.60;1.33;;;8.70;98.20;;;;;;4997001;28;20545;-78
2023/11/07 00:10:04;;;;;;;1.60;1.20;;;8.70;98.20;;;;;;4993137;28;21160;-77
2023/11/07 00:12:31;;;;;;;1.60;1.30;;;8.70;98.20;;;;;;4995887;28;20490;-77
2023/11/07 00:14:58;;;;;;;1.60;1.30;;;8.60;98.20;;;;;;4993155;28;20467;-77
2023/11/07 00:17:24;;;;;;;1.60;1.23;;;8.60;98.20;;;;;;4995913;28;20498;-79
2023/11/07 00:19:51;;;;;;;1.60;1.30;;;8.60;98.20;;;;;;4994182;28;20469;-78
2023/11/07 00:22:18;;;;;;;1.60;1.23;;;8.60;98.20;;;;;;4993985;28;20563;-77
2023/11/07 00:24:47;;;;;;;1.60;1.20;;;8.60;98.20;;;;;;4994007;28;20492;-79
2023/11/07 00:27:14;;;;;;;1.60;1.30;;;8.60;98.20;;;;;;4996957;28;20484;-79
2023/11/07 00:29:41;;;;;;;1.60;1.20;;;8.50;98.20;;;;;;4996512;28;20631;-77
2023/11/07 00:32:07;;;;;;;1.60;1.20;;;8.50;98.20;;;;;;4990869;28;20493;-77
2023/11/07 00:34:34;;;;;;;1.60;1.30;;;8.50;98.20;;;;;;4996060;28;20474;-78
2023/11/07 00:37:01;;;;;;;1.60;1.20;;;8.50;98.20;;;;;;4991266;28;20480;-78
2023/11/07 00:39:28;;;;;;;1.60;1.20;;;8.40;98.20;;;;;;4995689;28;20531;-78
2023/11/07 00:41:56;;;;;;;1.60;1.27;;;8.40;98.20;;;;;;4991618;28;20487;-78
2023/11/07 00:44:23;;;;;;;1.60;1.20;;;8.40;98.20;;;;;;4997782;28;20863;-78
2023/11/07 00:46:50;;;;;;;1.60;1.30;;;8.40;98.20;;;;;;4990570;28;20486;-78
2023/11/07 00:49:17;;;;;;;1.60;1.20;;;8.40;98.20;;;;;;4997375;28;20499;-78
2023/11/07 00:51:45;;;;;;;1.60;1.30;;;8.40;98.20;;;;;;4990114;28;20504;-78
2023/11/07 00:54:13;;;;;;;1.60;1.20;;;8.40;98.20;;;;;;5000446;28;21936;-78
2023/11/07 00:56:41;;;;;;;1.60;1.30;;;8.40;98.20;;;;;;4990600;28;21018;-77
2023/11/07 00:59:09;;;;;;;1.60;1.20;;;8.40;98.20;;;;;;4998041;28;20536;-78
2023/11/07 01:01:36;;;;;;;1.60;1.20;;;8.40;98.20;;;;;;4987054;28;20480;-78
2023/11/07 01:04:03;;;;;;;1.60;1.20;;;8.30;98.20;;;;;;4998205;28;20520;-78
2023/11/07 01:06:30;;;;;;;1.60;1.20;;;8.30;98.20;;;;;;4985168;28;20483;-77
2023/11/07 01:08:57;;;;;;;1.60;1.30;;;8.40;98.20;;;;;;5000679;28;20495;-78
2023/11/07 01:11:24;;;;;;;1.60;1.30;;;8.40;98.20;;;;;;4983872;28;20487;-78
2023/11/07 01:13:50;;;;;;;1.60;1.23;;;8.40;98.20;;;;;;4996966;28;20484;-78
2023/11/07 01:16:19;;;;;;;1.60;1.20;;;8.40;98.20;;;;;;4983420;28;20476;-79
2023/11/07 01:18:46;;;;;;;1.60;1.20;;;8.40;98.20;;;;;;4999826;28;21387;-78
2023/11/07 01:21:13;;;;;;;1.60;1.20;;;8.40;98.20;;;;;;4983235;28;21034;-78
2023/11/07 01:23:40;;;;;;;1.60;1.20;;;8.40;98.20;;;;;;5001124;28;20485;-77
2023/11/07 01:26:07;;;;;;;1.60;1.20;;;8.40;98.20;;;;;;4982870;28;20482;-78
2023/11/07 01:28:33;;;;;;;1.60;1.30;;;8.40;98.20;;;;;;5002119;28;20491;-77
2023/11/07 01:31:03;;;;;;;1.70;1.40;;;8.50;98.20;;;;;;4982294;28;20569;-78
2023/11/07 01:33:31;;;;;;;1.60;1.20;;;8.50;98.20;;;;;;5001721;28;20511;-77
2023/11/07 01:35:58;;;;;;;1.60;1.20;;;8.60;98.20;;;;;;4982461;28;20465;-78
2023/11/07 01:38:25;;;;;;;1.60;1.20;;;8.60;98.20;;;;;;5004257;28;20487;-78
2023/11/07 01:40:52;;;;;;;1.60;1.20;;;8.60;98.20;;;;;;4981870;28;20552;-78
2023/11/07 01:43:19;;;;;;;1.60;1.20;;;8.60;98.20;;;;;;5002053;28;20465;-78
2023/11/07 01:45:45;;;;;;;1.60;1.20;;;8.70;98.20;;;;;;4990738;28;20568;-78
2023/11/07 01:48:14;;;;;;;1.60;1.30;;;8.70;98.20;;;;;;4978377;28;20484;-78
2023/11/07 01:50:42;;;;;;;1.60;1.20;;;8.70;98.20;;;;;;4990474;28;20844;-78
2023/11/07 01:53:10;;;;;;;1.60;1.20;;;8.70;98.20;;;;;;4994321;28;20578;-78
2023/11/07 01:55:41;;;;;;;1.60;1.20;;;8.70;98.20;;;;;;4990885;28;20469;-79
2023/11/07 01:58:09;;;;;;;1.60;1.20;;;8.60;98.20;;;;;;4995105;28;20975;-78
2023/11/07 02:00:39;;;;;;;1.60;1.30;;;8.60;98.20;;;;;;4988437;28;20465;-78
2023/11/07 02:03:07;;;;;;;1.60;1.20;;;8.60;98.20;;;;;;4994602;28;20484;-78
2023/11/07 02:05:34;;;;;;;1.60;1.20;;;8.60;98.20;;;;;;4989138;28;20512;-78
2023/11/07 02:08:04;;;;;;;1.60;1.20;;;8.60;98.20;;;;;;4997192;28;20853;-78
2023/11/07 02:10:31;;;;;;;1.60;1.30;;;8.60;98.20;;;;;;4991395;28;20758;-78
2023/11/07 02:12:59;;;;;;;1.60;1.20;;;8.60;98.20;;;;;;4994833;28;20797;-78
2023/11/07 02:15:27;;;;;;;1.60;1.20;;;8.60;98.20;;;;;;4987262;28;20466;-78
2023/11/07 02:17:54;;;;;;;1.60;1.20;;;8.60;98.20;;;;;;4997202;28;20599;-78
2023/11/07 02:20:21;;;;;;;1.60;1.27;;;8.60;98.20;;;;;;5008224;23;20504;-83
2023/11/07 02:22:53;;;;;;;1.60;1.20;;;8.60;98.20;;;;;;4970273;28;20865;-84
2023/11/07 02:25:21;;;;;;;1.60;1.30;;;8.50;98.20;;;;;;4991974;28;20871;-83
2023/11/07 02:27:50;;;;;;;1.60;1.20;;;8.50;98.20;;;;;;4980981;28;20481;-82
2023/11/07 02:30:17;;;;;;;1.60;1.30;;;8.50;98.20;;;;;;4992778;28;20485;-83
2023/11/07 02:32:44;;;;;;;1.60;1.23;;;8.50;98.20;;;;;;4988170;28;20490;-82
2023/11/07 02:35:12;;;;;;;1.60;1.27;;;8.50;98.20;;;;;;4990524;28;20468;-82
2023/11/07 02:37:39;;;;;;;1.60;1.30;;;8.40;98.20;;;;;;4973743;28;20477;-82
2023/11/07 02:40:09;;;;;;;1.60;1.40;;;8.40;98.20;;;;;;4983482;28;20539;-82
2023/11/07 02:42:38;;;;;;;1.60;1.30;;;8.40;98.20;;;;;;4988667;28;20511;-82
2023/11/07 02:45:05;;;;;;;1.60;1.30;;;8.40;98.20;;;;;;4990302;28;20552;-83
2023/11/07 02:47:32;;;;;;;1.60;1.20;;;8.40;98.20;;;;;;4987136;28;20566;-82
2023/11/07 02:49:59;;;;;;;1.60;1.30;;;8.40;98.20;;;;;;4989646;28;20548;-83
2023/11/07 02:52:26;;;;;;;1.60;1.20;;;8.40;98.20;;;;;;4985083;28;20472;-82
2023/11/07 02:54:53;;;;;;;1.60;1.30;;;8.30;98.20;;;;;;4989896;28;20948;-82
2023/11/07 02:57:20;;;;;;;1.60;1.30;;;8.30;98.20;;;;;;4986316;28;20568;-82
2023/11/07 02:59:48;;;;;;;1.60;1.30;;;8.30;98.20;;;;;;4989245;28;20520;-82
2023/11/07 03:02:17;;;;;;;1.60;1.20;;;8.30;98.20;;;;;;4982973;28;20481;-82
2023/11/07 03:04:44;;;;;;;1.60;1.20;;;8.30;98.20;;;;;;4989585;28;20562;-82
2023/11/07 03:07:11;;;;;;;1.60;1.10;;;8.30;98.20;;;;;;4985525;28;20519;-82
2023/11/07 03:09:37;;;;;;;1.60;1.20;;;8.30;98.20;;;;;;4989539;28;20483;-82
2023/11/07 03:12:06;;;;;;;1.60;1.30;;;8.30;98.20;;;;;;4982177;28;20483;-82
2023/11/07 03:14:37;;;;;;;1.60;1.20;;;8.30;98.20;;;;;;4981339;28;20469;-79
2023/11/07 03:17:06;;;;;;;1.60;1.27;;;8.30;98.20;;;;;;4979533;28;20484;-81
2023/11/07 03:19:33;;;;;;;1.60;1.20;;;8.30;98.20;;;;;;4978822;28;21003;-82
2023/11/07 03:22:00;;;;;;;1.60;1.20;;;8.30;98.20;;;;;;4984630;28;20495;-82
2023/11/07 03:24:27;;;;;;;1.60;1.30;;;8.30;98.20;;;;;;4991283;28;21230;-81
2023/11/07 03:26:54;;;;;;;1.60;1.27;;;8.30;98.20;;;;;;4970405;28;20477;-81
2023/11/07 03:29:21;;;;;;;1.60;1.20;;;8.30;98.20;;;;;;4978444;28;20485;-81
2023/11/07 03:31:48;;;;;;;1.60;1.23;;;8.30;98.20;;;;;;4982439;28;20495;-81
2023/11/07 03:34:17;;;;;;;1.60;1.20;;;8.30;98.20;;;;;;4995781;28;20552;-81
2023/11/07 03:36:44;;;;;;;1.60;1.40;;;8.30;98.20;;;;;;4974218;28;20571;-82
2023/11/07 03:39:11;;;;;;;1.60;1.30;;;8.20;98.20;;;;;;4980315;28;20508;-83
2023/11/07 03:41:40;;;;;;;1.60;1.20;;;8.20;98.20;;;;;;4981751;28;20481;-81
2023/11/07 03:44:07;;;;;;;1.60;1.30;;;8.30;98.20;;;;;;4995347;28;20579;-82
2023/11/07 03:46:34;;;;;;;1.60;1.30;;;8.20;98.20;;;;;;4972754;28;20485;-81
2023/11/07 03:49:00;;;;;;;1.60;1.30;;;8.20;98.20;;;;;;4976673;28;20481;-82
2023/11/07 03:51:29;;;;;;;1.60;1.20;;;8.20;98.20;;;;;;4975229;28;20493;-81
2023/11/07 03:53:55;;;;;;;1.60;1.20;;;8.20;98.20;;;;;;4989627;28;20468;-81
2023/11/07 03:56:22;;;;;;;1.60;1.30;;;8.20;98.20;;;;;;4980078;28;20479;-82
2023/11/07 03:58:49;;;;;;;1.60;1.20;;;8.20;98.20;;;;;;4989167;28;20481;-81
2023/11/07 04:01:16;;;;;;;1.60;1.20;;;8.20;98.20;;;;;;4977648;28;20519;-82
2023/11/07 04:03:43;;;;;;;1.60;1.20;;;8.20;98.20;;;;;;4996122;28;20465;-81
2023/11/07 04:06:10;;;;;;;1.60;1.20;;;8.30;98.20;;;;;;4980146;28;20484;-82
2023/11/07 04:08:38;;;;;;;1.60;1.20;;;8.30;98.20;;;;;;4999002;28;20911;-82
2023/11/07 04:11:05;;;;;;;1.60;1.20;;;8.30;98.20;;;;;;4978018;28;20533;-83
2023/11/07 04:13:34;;;;;;;1.60;1.20;;;8.30;98.20;;;;;;4999629;28;20954;-82
2023/11/07 04:16:02;;;;;;;1.60;1.40;;;8.30;98.20;;;;;;4980506;28;20553;-82
2023/11/07 04:18:29;;;;;;;1.60;1.20;;;8.30;98.20;;;;;;4997373;28;20473;-80
2023/11/07 04:20:56;;;;;;;1.60;1.20;;;8.30;98.20;;;;;;4979515;28;20461;-80
2023/11/07 04:23:24;;;;;;;1.60;1.30;;;8.30;98.20;;;;;;4995981;28;20532;-82
2023/11/07 04:25:52;;;;;;;1.60;1.20;;;8.30;98.20;;;;;;4979492;28;20476;-82
2023/11/07 04:28:18;;;;;;;1.60;1.20;;;8.30;98.20;;;;;;4992556;28;20469;-82
2023/11/07 04:30:45;;;;;;;1.60;1.20;;;8.30;98.20;;;;;;4985662;28;20469;-81
2023/11/07 04:33:12;;;;;;;1.60;1.20;;;8.30;98.20;;;;;;4989604;28;20481;-81
2023/11/07 04:35:42;;;;;;;1.60;1.30;;;8.30;98.20;;;;;;4984966;28;20461;-82
2023/11/07 04:38:08;;;;;;;1.60;1.43;;;8.30;98.20;;;;;;4980645;28;21205;-81
2023/11/07 04:40:36;;;;;;;1.60;1.20;;;8.30;98.20;;;;;;4978348;28;20493;-81
2023/11/07 04:43:05;;;;;;;1.60;1.20;;;8.40;98.20;;;;;;4965279;28;21001;-82
2023/11/07 04:45:32;;;;;;;1.60;1.30;;;8.40;98.20;;;;;;4984773;28;20497;-79
2023/11/07 04:47:59;;;;;;;1.60;1.30;;;8.40;98.20;;;;;;4990469;28;20580;-82
2023/11/07 04:50:26;;;;;;;1.60;1.20;;;8.50;98.20;;;;;;4989542;28;20487;-81
2023/11/07 04:52:54;;;;;;;1.60;1.20;;;8.50;98.20;;;;;;4989084;28;20587;-81
2023/11/07 04:55:21;;;;;;;1.60;1.20;;;8.50;98.20;;;;;;4987500;28;20899;-82
2023/11/07 04:57:49;;;;;;;1.60;1.20;;;8.60;98.20;;;;;;4982895;28;21438;-82
2023/11/07 05:00:19;;;;;;;1.60;1.13;;;8.60;98.20;;;;;;4989628;28;20490;-82
2023/11/07 05:02:46;;;;;;;1.60;1.30;;;8.60;98.20;;;;;;4991114;28;20518;-82
2023/11/07 05:05:14;;;;;;;1.60;1.20;;;8.70;98.20;;;;;;4991577;28;20492;-83
2023/11/07 05:07:41;;;;;;;1.60;1.20;;;8.70;98.20;;;;;;4974374;28;20559;-81
2023/11/07 05:10:10;;;;;;;1.60;1.20;;;8.70;98.20;;;;;;4989050;28;20495;-84
2023/11/07 05:12:37;;;;;;;1.60;1.20;;;8.80;98.20;;;;;;4965078;28;20492;-82
2023/11/07 05:15:05;;;;;;;1.60;1.20;;;8.80;98.20;;;;;;4987195;28;20524;-83
2023/11/07 05:17:35;;;;;;;1.60;1.30;;;8.80;98.20;;;;;;4984146;28;20480;-82
2023/11/07 05:20:04;;;;;;;1.60;1.20;;;8.80;98.20;;;;;;4989297;28;20500;-82
2023/11/07 05:22:32;;;;;;;1.60;1.20;;;8.90;98.20;;;;;;4970278;28;20478;-79
2023/11/07 05:24:59;;;;;;;1.60;1.20;;;8.90;98.20;;;;;;4989044;28;20495;-82
2023/11/07 05:27:26;;;;;;;1.60;1.20;;;8.90;98.20;;;;;;4965058;28;20482;-82
2023/11/07 05:29:54;;;;;;;1.60;1.20;;;8.90;98.20;;;;;;4984917;28;20495;-82
2023/11/07 05:32:21;;;;;;;1.60;1.20;;;9.00;98.20;;;;;;4988011;28;20484;-83
2023/11/07 05:34:49;;;;;;;1.60;1.20;;;8.90;98.20;;;;;;4988660;28;20901;-83
2023/11/07 05:37:21;;;;;;;1.60;1.20;;;9.00;98.20;;;;;;4971546;28;20497;-81
2023/11/07 05:39:48;;;;;;;1.60;1.30;;;9.00;98.20;;;;;;4988191;28;20559;-82
2023/11/07 05:42:17;;;;;;;1.60;1.20;;;9.00;98.20;;;;;;4987491;28;20480;-82
2023/11/07 05:44:44;;;;;;;1.60;1.10;;;9.00;98.20;;;;;;4987595;28;20500;-82
2023/11/07 05:47:10;;;;;;;1.60;1.23;;;9.00;98.20;;;;;;4983307;28;20949;-83
2023/11/07 05:49:37;;;;;;;1.60;1.20;;;9.00;98.20;;;;;;4988328;28;20520;-82
2023/11/07 05:52:06;;;;;;;1.60;1.37;;;9.00;98.20;;;;;;4982107;28;20537;-84
2023/11/07 05:54:33;;;;;;;1.60;1.20;;;9.00;98.20;;;;;;4987477;28;20556;-83
2023/11/07 05:57:00;;;;;;;1.60;1.20;;;9.00;98.20;;;;;;4980984;28;20476;-82
2023/11/07 05:59:27;;;;;;;1.60;1.17;;;9.00;98.20;;;;;;4991928;28;20855;-82
2023/11/07 06:01:54;;;;;;;1.60;1.20;;;9.00;98.20;;;;;;4970158;28;20487;-84
2023/11/07 06:04:31;;;;;;;1.60;1.30;;;9.00;98.20;;;;;;4985463;28;20531;-82
2023/11/07 06:06:59;;;;;;;1.70;1.40;;;9.00;98.20;;;;;;4975731;28;20507;-82
2023/11/07 06:09:28;;;;;;;1.60;1.20;;;9.00;98.20;;;;;;4981390;28;20480;-82
2023/11/07 06:11:55;;;;;;;1.60;1.20;;;9.00;98.20;;;;;;4969860;28;20632;-80
2023/11/07 06:14:22;;;;;;;1.57;1.10;;;9.00;98.20;;;;;;4987011;28;20472;-83
2023/11/07 06:16:49;;;;;;;1.60;1.10;;;9.10;98.20;;;;;;4974781;28;20487;-82
2023/11/07 06:19:16;;;;;;;1.60;1.20;;;9.10;98.20;;;;;;4988238;28;20568;-83
2023/11/07 06:21:43;;;;;;;1.60;1.20;;;9.10;98.20;;;;;;4978262;28;20517;-78
2023/11/07 06:24:09;;;;;;;1.60;1.30;;;9.10;98.20;;;;;;4998444;28;20469;-81
2023/11/07 06:26:38;;;;;;;1.60;1.10;;;9.10;98.20;;;;;;4974877;28;20600;-81
2023/11/07 06:29:05;;;;;;;1.60;1.10;;;9.10;98.20;;;;;;4983770;28;21008;-82
2023/11/07 06:31:32;;;;;;;1.60;1.23;;;9.10;98.20;;;;;;4979227;28;20488;-79
2023/11/07 06:34:00;;;;;;;1.60;1.20;;;9.10;98.20;;;;;;4992644;28;20477;-78
2023/11/07 06:36:27;;;;;;;1.60;1.20;;;9.10;98.20;;;;;;4975294;28;20849;-78
2023/11/07 06:38:55;;;;;;;1.60;1.20;;;9.10;98.20;;;;;;4987754;28;20535;-80
2023/11/07 06:41:22;;;;;;;1.60;1.20;;;9.10;98.20;;;;;;4981079;28;20491;-78
2023/11/07 06:43:50;;;;;;;1.60;1.20;;;9.10;98.20;;;;;;4994281;28;20476;-78
2023/11/07 06:46:17;;;;;;;1.60;1.13;;;9.10;98.20;;;;;;4975765;28;20739;-80
2023/11/07 06:48:45;;;;;;;1.60;1.20;;;9.00;98.20;;;;;;4978622;28;20488;-78
2023/11/07 06:51:13;;;;;;;1.60;1.23;;;9.00;98.20;;;;;;4979347;28;20503;-79
2023/11/07 06:53:39;;;;;;;1.60;1.30;;;9.00;98.20;;;;;;4994668;28;20556;-80
2023/11/07 06:56:07;;;;;;;1.60;1.20;;;9.00;98.20;;;;;;4974231;28;20505;-79
2023/11/07 06:58:34;;;;;;;1.60;1.20;;;9.00;98.20;;;;;;4986111;28;20505;-81
2023/11/07 07:01:03;;;;;;;1.60;1.20;;;9.00;98.20;;;;;;4974659;28;20549;-80
2023/11/07 07:03:29;;;;;;;1.60;1.10;;;9.00;98.20;;;;;;4987345;28;20546;-82
2023/11/07 07:05:56;;;;;;;1.60;1.20;;;8.90;98.20;;;;;;4977493;28;20489;-80
2023/11/07 07:08:24;;;;;;;1.60;1.40;;;8.90;98.20;;;;;;4998954;28;20807;-80
2023/11/07 07:10:51;;;;;;;1.60;1.10;;;8.90;98.20;;;;;;4973835;28;20987;-80
2023/11/07 07:13:19;;;;;;;1.60;1.20;;;8.90;98.20;;;;;;4992405;28;20469;-81
2023/11/07 07:15:46;;;;;;;1.57;1.10;;;8.90;98.20;;;;;;4993826;28;21079;-81
2023/11/07 07:18:18;;;;;;;1.60;1.20;;;8.90;98.20;;;;;;4972942;28;20815;-81
2023/11/07 07:20:45;;;;;;;1.60;1.20;;;8.90;98.20;;;;;;4988009;28;20885;-79
2023/11/07 07:23:12;;;;;;;1.60;1.20;;;8.90;98.20;;;;;;4967207;28;20520;-79
2023/11/07 07:25:39;;;;;;;1.60;1.20;;;8.90;98.20;;;;;;4985181;28;20492;-80
2023/11/07 07:28:07;;;;;;;1.60;1.30;;;9.00;98.20;;;;;;4985724;28;20479;-80
2023/11/07 07:30:37;;;;;;;1.60;1.20;;;9.00;98.20;;;;;;4981536;28;20952;-80
2023/11/07 07:33:06;;;;;;;1.60;1.17;;;9.00;98.20;;;;;;4996263;28;20970;-80
2023/11/07 07:35:34;;;;;;;1.60;1.27;;;9.10;98.20;;;;;;4982895;28;20465;-81
2023/11/07 07:38:03;;;;;;;1.60;1.17;;;9.10;98.20;;;;;;4972044;28;21010;-81
2023/11/07 07:40:31;;;;;;;1.60;1.20;;;9.10;98.20;;;;;;4989709;28;20485;-81
2023/11/07 07:42:59;;;;;;;1.60;1.10;;;9.20;98.20;;;;;;4980352;28;21257;-81
2023/11/07 07:45:26;;;;;;;1.60;1.20;;;9.20;98.20;;;;;;4988581;28;20493;-80
2023/11/07 07:47:52;;;;;;;1.60;1.20;;;9.30;98.20;;;;;;4988694;28;20966;-81
2023/11/07 07:50:19;;;;;;;1.60;1.30;;;9.40;98.20;;;;;;4973603;28;20916;-81
2023/11/07 07:52:48;;;;;;;1.60;1.10;;;9.50;98.20;;;;;;4982526;28;20247;-81
2023/11/07 07:55:19;;;;;;;1.60;1.47;;;9.60;98.20;;;;;;4970995;28;20462;-81
2023/11/07 07:57:45;;;;;;;1.60;1.20;;;9.60;98.20;;;;;;4988495;28;20953;-81
2023/11/07 08:00:14;;;;;;;1.60;1.20;;;9.60;98.20;;;;;;4989004;28;20592;-81
2023/11/07 08:02:41;;;;;;;1.60;1.30;;;9.70;98.20;;;;;;4976966;28;20481;-81
2023/11/07 08:05:09;;;;;;;1.60;1.10;;;9.80;98.20;;;;;;4971783;28;20494;-81
2023/11/07 08:07:36;;;;;;;1.60;1.20;;;9.90;98.20;;;;;;4975510;28;20495;-81
2023/11/07 08:10:09;;;;;;;1.60;1.20;;;9.90;98.20;;;;;;4971925;28;20492;-81
2023/11/07 08:12:36;;;;;;;1.60;1.10;;;10.00;98.20;;;;;;4987289;28;20627;-80
2023/11/07 08:15:07;;;;;;;1.60;1.10;;;10.00;98.20;;;;;;4984619;28;20468;-81
2023/11/07 08:17:34;;;;;;;1.60;1.13;;;10.00;98.20;;;;;;4980932;28;20489;-82
2023/11/07 08:20:00;;;;;;;1.60;1.10;;;10.00;98.20;;;;;;4990375;28;20497;-81
2023/11/07 08:22:27;;;;;;;1.60;1.10;;;10.10;98.20;;;;;;4975858;28;20488;-81
2023/11/07 08:24:54;;;;;;;1.60;1.30;;;10.10;98.20;;;;;;4977972;28;20460;-81
2023/11/07 08:27:23;;;;;;;1.60;1.40;;;10.10;98.20;;;;;;4986011;28;20590;-80
2023/11/07 08:29:50;;;;;;;1.60;1.17;;;10.10;98.20;;;;;;4996797;28;20493;-81
2023/11/07 08:32:18;;;;;;;1.60;1.10;;;10.10;98.20;;;;;;4987979;28;20477;-81
2023/11/07 08:34:45;;;;;;;1.57;1.20;;;10.10;98.20;;;;;;4988552;28;20508;-81
2023/11/07 08:37:12;;;;;;;1.60;1.10;;;10.10;98.20;;;;;;4975609;28;20480;-81
2023/11/07 08:39:40;;;;;;;1.60;1.10;;;10.20;98.20;;;;;;4969409;28;20513;-81
2023/11/07 08:42:07;;;;;;;1.60;1.20;;;10.20;98.20;;;;;;4964249;28;20489;-81
2023/11/07 08:44:35;;;;;;;1.60;1.20;;;10.30;98.20;;;;;;4964696;28;20461;-81
2023/11/07 08:47:02;;;;;;;1.60;1.20;;;10.30;98.20;;;;;;4964096;28;20500;-81
2023/11/07 08:49:28;;;;;;;1.60;1.13;;;10.40;98.20;;;;;;4972828;28;20496;-82
2023/11/07 08:51:57;;;;;;;1.60;1.10;;;10.50;98.20;;;;;;4961595;28;20489;-81
2023/11/07 08:54:24;;;;;;;1.60;1.17;;;10.60;98.20;;;;;;4973262;28;20520;-81
2023/11/07 08:56:51;;;;;;;1.60;1.13;;;10.80;98.20;;;;;;4962415;28;20861;-81
2023/11/07 08:59:18;;;;;;;1.60;1.20;;;11.00;98.20;;;;;;4972270;28;20490;-79
2023/11/07 09:01:47;;;;;;;1.60;1.20;;;11.20;98.20;;;;;;4965893;28;20504;-81
2023/11/07 09:04:14;;;;;;;1.57;1.07;;;11.20;98.20;;;;;;4970315;28;20470;-81
2023/11/07 09:06:41;;;;;;;1.60;1.10;;;11.30;98.20;;;;;;4970036;28;20481;-80
2023/11/07 09:09:14;;;;;;;1.60;1.10;;;11.30;98.20;;;;;;4991436;28;20556;-81
2023/11/07 09:11:41;;;;;;;1.60;1.10;;;11.30;98.20;;;;;;4984891;28;20551;-81
2023/11/07 09:14:09;;;;;;;1.60;1.10;;;11.40;98.20;;;;;;4989535;28;20470;-78
2023/11/07 09:16:36;;;;;;;1.60;1.10;;;11.40;98.20;;;;;;4983314;28;20740;-82
2023/11/07 09:19:05;;;;;;;1.60;1.10;;;11.50;98.20;;;;;;4998000;28;20600;-81
2023/11/07 09:21:31;;;;;;;1.60;1.00;;;11.70;98.20;;;;;;4975730;28;20485;-81
2023/11/07 09:23:58;;;;;;;1.60;1.10;;;11.90;98.20;;;;;;4990271;28;20952;-81
2023/11/07 09:26:25;;;;;;;1.60;1.20;;;12.00;98.20;;;;;;4999048;22;20550;-77
2023/11/07 09:28:52;;;;;;;1.60;1.10;;;12.00;98.20;;;;;;4996184;28;20481;-78
2023/11/07 09:31:18;;;;;;;1.50;1.00;;;12.00;98.20;;;;;;4980538;28;20526;-77
2023/11/07 09:33:45;;;;;;;1.70;1.40;;;12.00;98.20;;;;;;4999959;28;20488;-77
2023/11/07 09:36:15;;;;;;;1.57;1.00;;;12.00;98.20;;;;;;4981685;28;20480;-77
2023/11/07 09:38:42;;;;;;;1.60;1.10;;;12.00;98.20;;;;;;5000889;28;21034;-77
2023/11/07 09:41:10;;;;;;;1.60;1.20;;;12.10;98.20;;;;;;4976688;28;20504;-78
2023/11/07 09:43:38;;;;;;;1.60;1.10;;;12.00;98.20;;;;;;4979918;28;20458;-79
2023/11/07 09:46:06;;;;;;;1.60;1.10;;;12.00;98.20;;;;;;4959590;28;20600;-77
2023/11/07 09:48:39;;;;;;;1.60;1.10;;;12.00;98.20;;;;;;4995305;28;20466;-78
2023/11/07 09:51:08;;;;;;;1.60;1.10;;;12.00;98.20;;;;;;4964978;28;20465;-77
2023/11/07 09:53:37;;;;;;;1.60;1.00;;;12.00;98.20;;;;;;4980083;28;20492;-76
2023/11/07 09:56:10;;;;;;;1.53;1.03;;;12.00;98.20;;;;;;4960130;28;20490;-76
2023/11/07 09:58:42;;;;;;;1.57;1.00;;;12.00;98.20;;;;;;4974971;28;20522;-76
2023/11/07 10:01:10;;;;;;;1.57;1.03;;;12.00;98.20;;;;;;4953351;28;21470;-77
2023/11/07 10:03:39;;;;;;;1.60;1.10;;;12.10;98.20;;;;;;4974509;28;20486;-77
2023/11/07 10:06:06;;;;;;;1.60;1.00;;;12.00;98.20;;;;;;4958174;28;20502;-76
2023/11/07 10:08:33;;;;;;;1.60;1.00;;;12.10;98.20;;;;;;4975258;28;20470;-76
2023/11/07 10:11:11;;;;;;;1.60;1.00;;;12.20;98.20;;;;;;4962062;28;20469;-76
2023/11/07 10:13:38;;;;;;;1.57;1.00;;;12.20;98.20;;;;;;4990588;28;20464;-76
2023/11/07 10:16:07;;;;;;;1.60;1.07;;;12.20;98.20;;;;;;4968622;28;20536;-76
2023/11/07 10:18:47;;;;;;;1.57;1.03;;;12.20;98.20;;;;;;4977131;28;20661;-76
2023/11/07 10:21:14;;;;;;;1.60;1.10;;;12.20;98.20;;;;;;4959951;28;20477;-76
2023/11/07 10:23:41;;;;;;;1.60;1.07;;;12.20;98.20;;;;;;4985861;28;20456;-76
2023/11/07 10:26:15;;;;;;;1.60;1.20;;;12.30;98.20;;;;;;4979242;28;20982;-76
2023/11/07 10:28:42;;;;;;;1.60;1.10;;;12.30;98.20;;;;;;4999899;28;20465;-76
2023/11/07 10:31:19;;;;;;;1.60;1.30;;;12.30;98.20;;;;;;4979608;28;20471;-76
2023/11/07 10:33:46;;;;;;;1.60;1.10;;;12.30;98.20;;;;;;4996430;28;20481;-76
2023/11/07 10:36:13;;;;;;;1.57;1.03;;;12.40;98.20;;;;;;4974319;28;20870;-76
2023/11/07 10:38:40;;;;;;;1.57;1.00;;;12.40;98.20;;;;;;4998095;28;20552;-77
2023/11/07 10:41:08;;;;;;;1.57;1.00;;;12.50;98.20;;;;;;4977586;28;20573;-76
2023/11/07 10:43:37;;;;;;;1.60;1.10;;;12.50;98.20;;;;;;5000787;28;20465;-76
2023/11/07 10:46:05;;;;;;;1.60;1.10;;;12.60;98.20;;;;;;4975245;28;20489;-76
2023/11/07 10:48:38;;;;;;;1.57;1.00;;;12.60;98.20;;;;;;5003275;28;21022;-76
2023/11/07 10:51:06;;;;;;;1.57;1.00;;;12.70;98.20;;;;;;4975246;28;20473;-76
2023/11/07 10:53:34;;;;;;;1.53;1.00;;;12.70;98.20;;;;;;5000626;28;20560;-76
2023/11/07 10:56:02;;;;;;;1.50;1.00;;;12.70;98.20;;;;;;4976304;28;20500;-76
2023/11/07 10:58:31;;;;;;;1.60;1.10;;;12.60;98.20;;;;;;4998858;28;20472;-76
2023/11/07 11:01:02;;;;;;;1.60;1.20;;;12.60;98.20;;;;;;4975654;28;20480;-76
2023/11/07 11:03:30;;;;;;;1.57;1.00;;;12.60;98.20;;;;;;4999835;28;20496;-76
2023/11/07 11:05:58;;;;;;;2.60;2.40;;;12.60;98.20;;;;;;4974009;28;20939;-76
2023/11/07 11:08:26;;;;;;;1.57;1.00;;;12.70;98.20;;;;;;4997631;28;20504;-76
2023/11/07 11:10:57;;;;;;;1.60;1.00;;;12.70;98.20;;;;;;4972705;28;20468;-76
2023/11/07 11:13:24;;;;;;;1.57;1.00;;;12.70;98.20;;;;;;4999776;28;20465;-76
2023/11/07 11:15:53;;;;;;;1.57;1.00;;;12.70;98.20;;;;;;4973957;28;21015;-76
2023/11/07 11:18:27;;;;;;;1.60;1.10;;;12.80;98.20;;;;;;5000102;28;20564;-76
2023/11/07 11:21:03;;;;;;;1.60;1.00;;;12.90;98.20;;;;;;4975942;28;20473;-76
2023/11/07 11:23:39;;;;;;;1.50;1.00;;;13.00;98.20;;;;;;5000995;28;20955;-75
2023/11/07 11:26:21;;;;;;;1.60;1.10;;;13.10;98.20;;;;;;4976994;28;20492;-78
2023/11/07 11:28:48;;;;;;;1.53;1.00;;;13.20;98.20;;;;;;4993128;28;20469;-75
2023/11/07 11:31:16;;;;;;;1.57;1.00;;;13.10;98.20;;;;;;4976873;28;20560;-75
2023/11/07 11:33:46;;;;;;;1.60;1.10;;;13.00;98.20;;;;;;4994392;28;20465;-75
2023/11/07 11:36:35;;;;;;;1.57;1.10;;;13.10;98.20;;;;;;4973456;28;20469;-76
2023/11/07 11:39:04;;;;;;;1.60;1.07;;;13.30;98.20;;;;;;4974371;28;20474;-77
2023/11/07 11:41:55;;;;;;;1.60;1.10;;;13.40;98.20;;;;;;4959724;28;20492;-76
2023/11/07 11:44:24;;;;;;;1.60;1.10;;;13.60;98.20;;;;;;4970208;28;20472;-76
2023/11/07 11:46:52;;;;;;;1.57;1.00;;;13.70;98.20;;;;;;4963192;28;21007;-76
2023/11/07 11:49:21;;;;;;;1.60;1.00;;;13.90;98.20;;;;;;4973907;28;20578;-76
2023/11/07 11:51:51;;;;;;;1.60;1.10;;;14.00;98.20;;;;;;4962246;28;21003;-76
2023/11/07 11:54:53;;;;;;;1.60;1.00;;;14.10;98.20;;;;;;4971799;28;20470;-76
2023/11/07 11:57:22;;;;;;;1.60;1.10;;;14.00;98.20;;;;;;4967551;28;20491;-76
2023/11/07 11:59:59;;;;;;;1.60;1.00;;;14.10;98.20;;;;;;4967509;28;20466;-76
2023/11/07 12:02:39;;;;;;;1.60;1.00;;;14.20;98.20;;;;;;4966787;28;20886;-76
2023/11/07 12:05:20;;;;;;;1.60;1.00;;;14.20;98.20;;;;;;4961845;28;20490;-76
2023/11/07 12:07:49;;;;;;;1.60;1.10;;;14.20;98.20;;;;;;4964431;28;20547;-77
2023/11/07 12:10:17;;;;;;;1.60;1.00;;;14.10;98.20;;;;;;4963192;28;20470;-76
2023/11/07 12:12:44;;;;;;;1.57;1.00;;;14.10;98.20;;;;;;4969789;28;20484;-76
2023/11/07 12:15:13;;;;;;;1.60;1.10;;;14.00;98.20;;;;;;4965080;28;20604;-76
2023/11/07 12:17:45;;;;;;;1.60;1.00;;;13.90;98.20;;;;;;4967993;28;20485;-76
2023/11/07 12:20:14;;;;;;;1.60;1.00;;;13.80;98.20;;;;;;4963949;28;20991;-76
2023/11/07 12:22:46;;;;;;;1.57;1.00;;;13.70;98.20;;;;;;4972653;28;20657;-76
2023/11/07 12:25:16;;;;;;;1.53;1.03;;;13.50;98.20;;;;;;4962783;28;20486;-76
2023/11/07 12:27:44;;;;;;;1.60;1.00;;;13.40;98.20;;;;;;4969187;28;20560;-77
2023/11/07 12:30:13;;;;;;;1.57;1.00;;;13.30;98.20;;;;;;4964665;28;20466;-76
2023/11/07 12:32:40;;;;;;;1.53;1.00;;;13.30;98.20;;;;;;4972039;28;20489;-76
2023/11/07 12:35:19;;;;;;;1.57;1.00;;;13.30;98.20;;;;;;4962125;28;20561;-77
2023/11/07 12:37:48;;;;;;;1.57;1.00;;;13.40;98.20;;;;;;4988447;28;20486;-77
2023/11/07 12:40:16;;;;;;;1.60;1.10;;;13.50;98.20;;;;;;4983253;28;21121;-77
2023/11/07 12:42:51;;;;;;;1.50;1.00;;;13.50;98.20;;;;;;4971486;28;20543;-77
2023/11/07 12:45:21;;;;;;;1.60;1.10;;;13.60;98.20;;;;;;4963282;28;20481;-76
2023/11/07 12:47:58;;;;;;;1.57;1.00;;;13.60;98.20;;;;;;4967186;28;21011;-77
2023/11/07 12:50:30;;;;;;;1.50;1.00;;;13.70;98.20;;;;;;4959156;28;20561;-77
2023/11/07 12:52:58;;;;;;;1.57;1.00;;;13.70;98.20;;;;;;4971611;28;20504;-76
2023/11/07 12:55:26;;;;;;;1.57;1.00;;;13.80;98.20;;;;;;4959012;28;20490;-77
2023/11/07 12:57:55;;;;;;;1.60;1.00;;;14.00;98.20;;;;;;4970716;28;20492;-77